createdAt,value
2023-03-06T00:00:57.480Z,97782.38
2023-03-06T00:03:27.836Z,97782.41
2023-03-06T00:05:57.347Z,97778.06
2023-03-06T00:08:25.921Z,97782.41
2023-03-06T00:10:53.212Z,97778.09
2023-03-06T00:13:23.216Z,97773.81
2023-03-06T00:15:50.252Z,97779.84
2023-03-06T00:18:17.584Z,97774.69
2023-03-06T00:20:44.885Z,97768.66
2023-03-06T00:23:12.517Z,97761.72
2023-03-06T00:25:43.202Z,97765.22
2023-03-06T00:28:12.354Z,97762.66
2023-03-06T00:30:39.678Z,97754.00
2023-03-06T00:33:07.016Z,97762.66
2023-03-06T00:35:33.979Z,97763.56
2023-03-06T00:38:01.151Z,97760.13
2023-03-06T00:40:28.034Z,97769.66
2023-03-06T00:42:55.351Z,97764.50
2023-03-06T00:45:22.342Z,97765.38
2023-03-06T00:47:49.581Z,97763.66
2023-03-06T00:50:16.624Z,97770.59
2023-03-06T00:52:43.833Z,97767.09
2023-03-06T00:55:11.170Z,97761.06
2023-03-06T00:57:38.465Z,97757.63
2023-03-06T01:00:06.455Z,97761.00
2023-03-06T01:02:33.898Z,97756.69
2023-03-06T01:05:01.175Z,97758.38
2023-03-06T01:07:28.682Z,97751.44
2023-03-06T01:09:55.522Z,97762.66
2023-03-06T01:12:23.562Z,97761.78
2023-03-06T01:14:50.613Z,97765.28
2023-03-06T01:17:17.845Z,97771.28
2023-03-06T01:19:44.813Z,97766.13
2023-03-06T01:22:12.025Z,97757.44
2023-03-06T01:24:39.185Z,97747.91
2023-03-06T01:27:06.449Z,97753.00
2023-03-06T01:29:33.385Z,97755.59
2023-03-06T01:32:00.732Z,97758.19
2023-03-06T01:34:27.910Z,97762.50
2023-03-06T01:36:55.152Z,97756.50
2023-03-06T01:39:22.031Z,97757.44
2023-03-06T01:41:49.308Z,97753.19
2023-03-06T01:44:16.195Z,97754.97
2023-03-06T01:46:45.033Z,97754.97
2023-03-06T01:49:25.973Z,97748.94
2023-03-06T01:51:55.695Z,97749.84
2023-03-06T01:54:27.998Z,97739.50
2023-03-06T01:57:08.362Z,97732.56
2023-03-06T01:59:38.781Z,97738.69
2023-03-06T02:02:08.167Z,97735.16
2023-03-06T02:04:37.888Z,97736.91
2023-03-06T02:07:06.204Z,97737.78
2023-03-06T02:09:34.829Z,97741.25
2023-03-06T02:12:06.456Z,97743.84
2023-03-06T02:14:33.344Z,97745.56
2023-03-06T02:17:00.684Z,97743.84
2023-03-06T02:19:38.592Z,97753.38
2023-03-06T02:22:06.058Z,97749.88
2023-03-06T02:25:04.646Z,97753.31
2023-03-06T02:27:32.649Z,97752.34
2023-03-06T02:29:59.556Z,97750.72
2023-03-06T02:32:26.855Z,97756.69
2023-03-06T02:34:57.920Z,97752.38
2023-03-06T02:37:28.709Z,97748.91
2023-03-06T02:40:03.549Z,97756.69
2023-03-06T02:42:30.778Z,97760.22
2023-03-06T02:45:00.852Z,97754.16
2023-03-06T02:47:28.089Z,97763.69
2023-03-06T02:49:55.054Z,97750.00
2023-03-06T02:52:22.315Z,97760.38
2023-03-06T02:54:49.264Z,97753.50
2023-03-06T02:57:16.420Z,97758.72
2023-03-06T02:59:43.298Z,97745.00
2023-03-06T03:02:10.667Z,97734.66
2023-03-06T03:04:37.584Z,97726.91
2023-03-06T03:07:04.875Z,97720.88
2023-03-06T03:09:36.953Z,97718.38
2023-03-06T03:12:06.685Z,97714.22
2023-03-06T03:14:33.862Z,97712.69
2023-03-06T03:17:01.957Z,97717.13
2023-03-06T03:19:28.903Z,97728.44
2023-03-06T03:21:56.111Z,97741.41
2023-03-06T03:24:23.140Z,97742.28
2023-03-06T03:26:50.368Z,97751.72
2023-03-06T03:29:17.413Z,97749.97
2023-03-06T03:31:44.644Z,97751.72
2023-03-06T03:34:12.011Z,97747.38
2023-03-06T03:36:39.630Z,97746.53
2023-03-06T03:39:06.715Z,97747.38
2023-03-06T03:41:34.345Z,97743.00
2023-03-06T03:44:01.262Z,97736.09
2023-03-06T03:46:28.855Z,97730.91
2023-03-06T03:48:55.920Z,97721.41
2023-03-06T03:51:23.186Z,97720.53
2023-03-06T03:53:50.919Z,97717.03
2023-03-06T03:56:18.572Z,97717.88
2023-03-06T03:58:45.460Z,97723.88
2023-03-06T04:01:12.667Z,97727.41
2023-03-06T04:03:39.613Z,97732.78
2023-03-06T04:06:07.319Z,97734.63
2023-03-06T04:08:34.524Z,97732.06
2023-03-06T04:11:02.142Z,97731.19
2023-03-06T04:13:29.802Z,97729.47
2023-03-06T04:15:57.218Z,97738.13
2023-03-06T04:18:24.492Z,97740.72
2023-03-06T04:20:51.806Z,97737.22
2023-03-06T04:23:19.325Z,97732.06
2023-03-06T04:25:46.628Z,97734.69
2023-03-06T04:28:14.100Z,97734.72
2023-03-06T04:30:41.520Z,97739.91
2023-03-06T04:33:08.703Z,97741.66
2023-03-06T04:35:36.358Z,97740.75
2023-03-06T04:38:03.808Z,97733.06
2023-03-06T04:40:34.778Z,97739.16
2023-03-06T04:43:03.318Z,97739.16
2023-03-06T04:45:31.401Z,97744.31
2023-03-06T04:47:58.825Z,97741.72
2023-03-06T04:50:28.257Z,97741.66
2023-03-06T04:52:55.215Z,97741.72
2023-03-06T04:55:22.410Z,97743.50
2023-03-06T04:57:49.350Z,97744.41
2023-03-06T05:00:19.766Z,97742.59
2023-03-06T05:02:47.991Z,97740.03
2023-03-06T05:05:16.803Z,97739.16
2023-03-06T05:07:44.380Z,97745.19
2023-03-06T05:10:14.406Z,97739.97
2023-03-06T05:12:41.569Z,97739.16
2023-03-06T05:15:09.987Z,97748.66
2023-03-06T05:17:40.597Z,97744.41
2023-03-06T05:20:13.168Z,97751.28
2023-03-06T05:22:40.751Z,97748.75
2023-03-06T05:25:09.272Z,97746.13
2023-03-06T05:27:36.853Z,97747.00
2023-03-06T05:30:05.242Z,97759.88
2023-03-06T05:32:34.428Z,97742.66
2023-03-06T05:35:03.528Z,97754.69
2023-03-06T05:37:30.888Z,97747.75
2023-03-06T05:39:58.266Z,97752.03
2023-03-06T05:42:27.510Z,97754.59
2023-03-06T05:44:55.778Z,97752.84
2023-03-06T05:47:22.701Z,97754.53
2023-03-06T05:49:50.024Z,97755.31
2023-03-06T05:52:17.631Z,97763.91
2023-03-06T05:54:44.876Z,97765.56
2023-03-06T05:57:11.834Z,97767.22
2023-03-06T05:59:38.997Z,97767.97
2023-03-06T06:02:05.977Z,97760.88
2023-03-06T06:04:33.102Z,97757.25
2023-03-06T06:07:01.351Z,97766.69
2023-03-06T06:09:29.667Z,97764.03
2023-03-06T06:11:59.834Z,97760.44
2023-03-06T06:14:28.466Z,97751.63
2023-03-06T06:16:56.242Z,97761.88
2023-03-06T06:19:23.943Z,97760.94
2023-03-06T06:21:53.800Z,97757.06
2023-03-06T06:24:23.553Z,97758.78
2023-03-06T06:26:51.950Z,97753.16
2023-03-06T06:29:19.548Z,97743.31
2023-03-06T06:31:46.578Z,97755.25
2023-03-06T06:34:14.080Z,97757.59
2023-03-06T06:36:41.098Z,97764.50
2023-03-06T06:39:09.643Z,97762.00
2023-03-06T06:41:54.851Z,97767.25
2023-03-06T06:44:23.911Z,97776.78
2023-03-06T06:49:39.414Z,97774.94
2023-03-06T06:52:07.515Z,97765.69
2023-03-06T06:54:34.939Z,97775.06
2023-03-06T06:57:01.985Z,97770.25
2023-03-06T06:59:29.171Z,97773.53
2023-03-06T07:01:56.060Z,97772.22
2023-03-06T07:04:23.457Z,97767.31
2023-03-06T07:06:50.321Z,97775.75
2023-03-06T07:09:17.517Z,97781.41
2023-03-06T07:11:44.764Z,97782.16
2023-03-06T07:14:11.984Z,97789.59
2023-03-06T07:16:38.891Z,97787.91
2023-03-06T07:19:06.720Z,97789.31
2023-03-06T07:21:34.202Z,97786.34
2023-03-06T07:24:01.669Z,97770.13
2023-03-06T07:26:28.631Z,97774.97
2023-03-06T07:28:55.890Z,97781.53
2023-03-06T07:31:25.986Z,97777.19
2023-03-06T07:33:54.851Z,97777.72
2023-03-06T07:36:23.254Z,97776.50
2023-03-06T07:38:50.642Z,97777.03
2023-03-06T07:41:21.778Z,97773.84
2023-03-06T07:43:50.283Z,97768.63
2023-03-06T07:46:17.867Z,97778.38
2023-03-06T07:48:45.070Z,97778.38
2023-03-06T07:51:15.788Z,97779.16
2023-03-06T07:53:43.589Z,97789.53
2023-03-06T07:56:11.946Z,97781.19
2023-03-06T07:58:42.160Z,97786.41
2023-03-06T08:01:14.770Z,97791.72
2023-03-06T08:03:42.110Z,97799.53
2023-03-06T08:06:10.818Z,97800.50
2023-03-06T08:08:42.334Z,97790.41
2023-03-06T08:11:11.224Z,97789.56
2023-03-06T08:13:39.044Z,97796.31
2023-03-06T08:16:06.905Z,97802.31
2023-03-06T08:18:34.811Z,97798.75
2023-03-06T08:21:10.556Z,97790.91
2023-03-06T08:23:38.750Z,97793.03
2023-03-06T08:26:08.139Z,97800.09
2023-03-06T08:28:35.602Z,97798.38
2023-03-06T08:31:31.227Z,97803.63
2023-03-06T08:34:00.913Z,97798.75
2023-03-06T08:36:27.846Z,97809.28
2023-03-06T08:38:55.397Z,97802.06
2023-03-06T08:41:22.945Z,97804.13
2023-03-06T08:43:50.696Z,97811.22
2023-03-06T08:46:18.956Z,97798.88
2023-03-06T08:48:47.934Z,97805.75
2023-03-06T08:51:15.526Z,97804.44
2023-03-06T08:53:44.193Z,97804.28
2023-03-06T08:56:29.797Z,97806.22
2023-03-06T08:58:58.507Z,97806.00
2023-03-06T09:01:31.620Z,97814.25
2023-03-06T09:04:01.247Z,97817.00
2023-03-06T09:06:32.111Z,97818.53
2023-03-06T09:08:59.704Z,97814.78
2023-03-06T09:11:27.442Z,97815.44
2023-03-06T09:13:56.210Z,97805.78
2023-03-06T09:16:23.897Z,97817.84
2023-03-06T09:18:54.043Z,97808.94
2023-03-06T09:21:22.607Z,97813.22
2023-03-06T09:23:50.342Z,97808.84
2023-03-06T09:26:17.642Z,97817.03
2023-03-06T09:28:45.103Z,97803.81
2023-03-06T09:31:15.304Z,97802.72
2023-03-06T09:33:42.885Z,97804.59
2023-03-06T09:36:18.633Z,97793.16
2023-03-06T09:38:47.995Z,97795.25
2023-03-06T09:41:26.546Z,97791.31
2023-03-06T09:43:58.035Z,97781.72
2023-03-06T09:46:38.512Z,97789.13
2023-03-06T09:49:38.337Z,97777.06
2023-03-06T09:52:28.200Z,97774.69
2023-03-06T09:55:09.096Z,97765.38
2023-03-06T09:57:42.182Z,97761.97
2023-03-06T10:00:15.733Z,97764.72
2023-03-06T10:02:51.484Z,97765.38
2023-03-06T10:05:24.244Z,97765.69
2023-03-06T10:07:58.393Z,97763.69
2023-03-06T10:10:40.773Z,97762.31
2023-03-06T10:13:32.367Z,97763.69
2023-03-06T10:16:23.438Z,97762.59
2023-03-06T10:18:51.011Z,97757.66
2023-03-06T10:21:41.208Z,97755.00
2023-03-06T10:24:24.049Z,97749.19
2023-03-06T10:27:10.633Z,97752.00
2023-03-06T10:30:02.097Z,97744.53
2023-03-06T10:32:55.172Z,97749.16
2023-03-06T10:35:30.530Z,97745.88
2023-03-06T10:38:26.900Z,97758.56
2023-03-06T10:40:56.906Z,97741.09
2023-03-06T10:43:24.083Z,97745.16
2023-03-06T10:45:53.425Z,97742.03
2023-03-06T10:48:26.315Z,97735.63
2023-03-06T10:51:17.732Z,97737.28
2023-03-06T10:53:52.562Z,97729.66
2023-03-06T10:56:34.596Z,97723.19
2023-03-06T10:59:40.167Z,97717.16
2023-03-06T11:02:41.281Z,97715.06
2023-03-06T11:05:20.133Z,97713.13
2023-03-06T11:07:59.465Z,97707.25
2023-03-06T11:10:28.124Z,97703.53
2023-03-06T11:13:10.516Z,97701.13
2023-03-06T11:15:37.750Z,97706.03
2023-03-06T11:18:07.711Z,97704.47
2023-03-06T11:20:52.366Z,97697.66
2023-03-06T11:23:40.202Z,97690.06
2023-03-06T11:26:16.581Z,97690.28
2023-03-06T11:29:07.918Z,97676.78
2023-03-06T11:31:39.462Z,97682.06
2023-03-06T11:34:12.036Z,97686.38
2023-03-06T11:37:02.586Z,97675.81
2023-03-06T11:39:53.575Z,97682.41
2023-03-06T11:42:29.639Z,97675.84
2023-03-06T11:45:23.465Z,97680.69
2023-03-06T11:48:01.704Z,97687.13
2023-03-06T11:50:37.064Z,97670.56
2023-03-06T11:53:07.300Z,97666.09
2023-03-06T11:55:42.810Z,97659.66
2023-03-06T11:58:37.506Z,97664.19
2023-03-06T12:01:12.938Z,97667.88
2023-03-06T12:04:07.388Z,97665.66
2023-03-06T12:06:47.760Z,97653.06
2023-03-06T12:09:28.723Z,97649.91
2023-03-06T12:12:20.525Z,97654.41
2023-03-06T12:14:50.521Z,97653.41
2023-03-06T12:17:46.601Z,97647.53
2023-03-06T12:20:40.094Z,97640.03
2023-03-06T12:23:22.163Z,97638.72
2023-03-06T12:26:21.296Z,97625.88
2023-03-06T12:29:18.559Z,97630.03
2023-03-06T12:32:23.049Z,97628.16
2023-03-06T12:35:14.690Z,97622.34
2023-03-06T12:38:26.756Z,97632.03
2023-03-06T12:41:04.661Z,97631.88
2023-03-06T12:43:44.375Z,97630.47
2023-03-06T12:46:20.814Z,97633.88
2023-03-06T12:49:11.172Z,97635.25
2023-03-06T12:51:39.993Z,97632.97
2023-03-06T12:54:07.495Z,97626.97
2023-03-06T12:56:35.442Z,97630.44
2023-03-06T12:59:02.953Z,97622.63
2023-03-06T13:01:51.958Z,97627.53
2023-03-06T13:04:44.309Z,97621.25
2023-03-06T13:07:33.441Z,97614.06
2023-03-06T13:10:09.529Z,97618.28
2023-03-06T13:12:39.267Z,97618.22
2023-03-06T13:15:38.531Z,97612.59
2023-03-06T13:18:23.714Z,97610.94
2023-03-06T13:20:52.609Z,97603.84
2023-03-06T13:23:35.487Z,97604.34
2023-03-06T13:26:24.595Z,97600.81
2023-03-06T13:28:54.104Z,97601.88
2023-03-06T13:31:49.137Z,97593.56
2023-03-06T13:34:36.266Z,97587.91
2023-03-06T13:37:23.285Z,97584.56
2023-03-06T13:39:56.974Z,97590.09
2023-03-06T13:42:30.792Z,97583.72
2023-03-06T13:45:05.782Z,97589.91
2023-03-06T13:47:33.506Z,97584.75
2023-03-06T13:50:14.008Z,97584.19
2023-03-06T13:53:10.110Z,97582.06
2023-03-06T13:56:08.861Z,97571.50
2023-03-06T13:58:39.040Z,97577.22
2023-03-06T14:01:43.613Z,97574.94
2023-03-06T14:04:34.809Z,97577.78
2023-03-06T14:07:30.548Z,97577.25
2023-03-06T14:10:03.602Z,97575.69
2023-03-06T14:12:36.138Z,97566.00
2023-03-06T14:15:42.378Z,97564.31
2023-03-06T14:18:23.936Z,97555.47
2023-03-06T14:20:58.714Z,97556.09
2023-03-06T14:23:42.542Z,97549.94
2023-03-06T14:26:24.484Z,97552.47
2023-03-06T14:29:02.393Z,97546.09
2023-03-06T14:31:33.747Z,97551.88
2023-03-06T14:34:03.688Z,97544.56
2023-03-06T14:36:42.118Z,97552.00
2023-03-06T14:39:31.658Z,97538.78
2023-03-06T14:42:26.361Z,97542.25
2023-03-06T14:45:19.761Z,97535.28
2023-03-06T14:47:52.414Z,97531.84
2023-03-06T14:50:28.297Z,97533.63
2023-03-06T14:52:58.511Z,97540.28
2023-03-06T14:55:28.101Z,97533.97
2023-03-06T14:58:20.044Z,97526.13
2023-03-06T15:00:50.131Z,97533.13
2023-03-06T15:03:22.066Z,97526.22
2023-03-06T15:05:50.409Z,97521.13
2023-03-06T15:08:22.761Z,97517.75
2023-03-06T15:11:01.870Z,97522.19
2023-03-06T15:13:35.893Z,97515.28
2023-03-06T15:16:24.833Z,97520.00
2023-03-06T15:19:02.475Z,97520.91
2023-03-06T15:21:38.788Z,97519.53
2023-03-06T15:24:32.101Z,97519.84
2023-03-06T15:27:07.261Z,97528.78
2023-03-06T15:29:38.362Z,97526.28
2023-03-06T15:32:24.888Z,97522.91
2023-03-06T15:35:29.471Z,97523.22
2023-03-06T15:37:57.867Z,97523.81
2023-03-06T15:40:28.417Z,97527.84
2023-03-06T15:42:56.044Z,97519.28
2023-03-06T15:45:25.050Z,97518.50
2023-03-06T15:47:54.344Z,97513.50
2023-03-06T15:50:28.162Z,97518.09
2023-03-06T15:52:55.415Z,97524.41
2023-03-06T15:55:26.038Z,97515.06
2023-03-06T15:57:58.806Z,97517.91
2023-03-06T16:00:32.534Z,97525.19
2023-03-06T16:03:00.560Z,97529.22
2023-03-06T16:05:28.504Z,97525.78
2023-03-06T16:07:56.209Z,97523.44
2023-03-06T16:10:30.058Z,97521.06
2023-03-06T16:13:06.238Z,97527.28
2023-03-06T16:15:41.323Z,97525.03
2023-03-06T16:18:12.318Z,97524.38
2023-03-06T16:20:40.311Z,97527.97
2023-03-06T16:23:10.547Z,97523.78
2023-03-06T16:25:41.004Z,97530.00
2023-03-06T16:28:14.224Z,97526.75
2023-03-06T16:30:43.371Z,97536.50
2023-03-06T16:33:13.778Z,97530.56
2023-03-06T16:35:41.495Z,97522.94
2023-03-06T16:38:10.563Z,97529.22
2023-03-06T16:40:40.968Z,97527.88
2023-03-06T16:43:09.304Z,97530.59
2023-03-06T16:45:38.328Z,97530.88
2023-03-06T16:48:06.029Z,97536.38
2023-03-06T16:50:39.616Z,97534.94
2023-03-06T16:53:07.844Z,97530.97
2023-03-06T16:55:35.125Z,97528.78
2023-03-06T16:58:02.086Z,97537.84
2023-03-06T17:00:32.030Z,97536.38
2023-03-06T17:03:00.720Z,97534.16
2023-03-06T17:05:28.856Z,97537.91
2023-03-06T17:07:56.176Z,97532.97
2023-03-06T17:10:26.469Z,97530.66
2023-03-06T17:12:54.520Z,97530.88
2023-03-06T17:15:22.352Z,97531.22
2023-03-06T17:17:51.659Z,97526.13
2023-03-06T17:20:19.922Z,97521.88
2023-03-06T17:22:46.771Z,97526.38
2023-03-06T17:25:14.071Z,97520.38
2023-03-06T17:27:41.109Z,97523.94
2023-03-06T17:30:09.034Z,97531.91
2023-03-06T17:32:37.762Z,97514.50
2023-03-06T17:35:05.449Z,97517.19
2023-03-06T17:37:32.479Z,97518.91
2023-03-06T17:39:59.718Z,97515.47
2023-03-06T17:42:26.653Z,97513.81
2023-03-06T17:44:53.878Z,97514.06
2023-03-06T17:47:20.758Z,97518.44
2023-03-06T17:49:47.937Z,97508.13
2023-03-06T17:52:14.817Z,97514.25
2023-03-06T17:54:41.950Z,97516.97
2023-03-06T17:57:08.929Z,97513.47
2023-03-06T17:59:36.293Z,97516.97
2023-03-06T18:02:03.557Z,97515.47
2023-03-06T18:04:30.948Z,97519.88
2023-03-06T18:06:58.431Z,97512.19
2023-03-06T18:09:25.832Z,97515.03
2023-03-06T18:11:52.800Z,97516.03
2023-03-06T18:14:20.034Z,97509.19
2023-03-06T18:16:47.319Z,97518.88
2023-03-06T18:19:15.799Z,97519.03
2023-03-06T18:21:42.789Z,97508.00
2023-03-06T18:24:12.407Z,97516.78
2023-03-06T18:26:43.820Z,97514.97
2023-03-06T18:29:11.090Z,97508.06
2023-03-06T18:31:40.085Z,97516.84
2023-03-06T18:34:13.534Z,97516.16
2023-03-06T18:36:43.677Z,97518.94
2023-03-06T18:39:12.682Z,97519.00
2023-03-06T18:41:40.011Z,97517.41
2023-03-06T18:44:07.618Z,97520.00
2023-03-06T18:46:37.358Z,97519.25
2023-03-06T18:49:05.268Z,97515.75
2023-03-06T18:51:32.840Z,97527.13
2023-03-06T18:54:01.512Z,97529.88
2023-03-06T18:56:28.477Z,97526.50
2023-03-06T18:58:56.345Z,97537.25
2023-03-06T19:01:23.917Z,97533.97
2023-03-06T19:03:51.325Z,97529.97
2023-03-06T19:06:18.856Z,97533.72
2023-03-06T19:08:46.307Z,97528.88
2023-03-06T19:11:16.026Z,97536.03
2023-03-06T19:13:44.164Z,97533.78
2023-03-06T19:16:22.880Z,97538.44
2023-03-06T19:18:50.492Z,97528.38
2023-03-06T19:21:21.954Z,97531.06
2023-03-06T19:23:49.688Z,97531.25
2023-03-06T19:26:18.853Z,97521.03
2023-03-06T19:28:48.231Z,97517.72
2023-03-06T19:31:21.085Z,97525.59
2023-03-06T19:33:49.429Z,97524.81
2023-03-06T19:36:18.195Z,97521.38
2023-03-06T19:38:46.389Z,97522.47
2023-03-06T19:41:13.889Z,97519.06
2023-03-06T19:43:42.455Z,97524.38
2023-03-06T19:46:16.086Z,97517.41
2023-03-06T19:48:43.782Z,97520.84
2023-03-06T19:51:11.368Z,97516.66
2023-03-06T19:53:39.929Z,97516.66
2023-03-06T19:56:18.096Z,97515.91
2023-03-06T19:58:45.267Z,97517.59
2023-03-06T20:01:15.123Z,97520.25
2023-03-06T20:03:43.282Z,97520.19
2023-03-06T20:06:16.051Z,97510.75
2023-03-06T20:08:44.337Z,97509.03
2023-03-06T20:11:26.072Z,97509.16
2023-03-06T20:13:53.882Z,97506.66
2023-03-06T20:16:20.841Z,97499.88
2023-03-06T20:18:48.080Z,97511.19
2023-03-06T20:21:15.631Z,97501.78
2023-03-06T20:23:43.134Z,97508.91
2023-03-06T20:26:12.879Z,97502.09
2023-03-06T20:28:42.162Z,97507.41
2023-03-06T20:31:10.226Z,97505.91
2023-03-06T20:33:37.516Z,97503.44
2023-03-06T20:36:05.201Z,97501.69
2023-03-06T20:38:32.391Z,97498.34
2023-03-06T20:40:59.846Z,97500.06
2023-03-06T20:43:27.051Z,97497.38
2023-03-06T20:46:02.653Z,97497.38
2023-03-06T20:48:30.184Z,97494.84
2023-03-06T20:51:08.164Z,97502.56
2023-03-06T20:53:35.411Z,97501.78
2023-03-06T20:56:02.485Z,97496.59
2023-03-06T20:58:31.819Z,97495.69
2023-03-06T21:00:59.948Z,97498.38
2023-03-06T21:03:29.319Z,97496.66
2023-03-06T21:05:56.559Z,97496.59
2023-03-06T21:08:23.967Z,97493.94
2023-03-06T21:10:51.529Z,97493.06
2023-03-06T21:13:19.261Z,97494.78
2023-03-06T21:15:47.636Z,97491.25
2023-03-06T21:18:15.055Z,97495.56
2023-03-06T21:20:42.540Z,97494.72
2023-03-06T21:23:10.270Z,97490.34
2023-03-06T21:25:37.281Z,97486.06
2023-03-06T21:28:04.554Z,97487.78
2023-03-06T21:30:31.483Z,97485.91
2023-03-06T21:32:58.671Z,97486.00
2023-03-06T21:35:25.661Z,97485.91
2023-03-06T21:37:53.232Z,97483.31
2023-03-06T21:40:20.173Z,97483.31
2023-03-06T21:42:47.382Z,97480.78
2023-03-06T21:45:14.354Z,97490.34
2023-03-06T21:47:41.738Z,97478.25
2023-03-06T21:50:10.818Z,97476.44
2023-03-06T21:52:38.089Z,97474.75
2023-03-06T21:55:05.695Z,97479.03
2023-03-06T21:57:32.944Z,97479.16
2023-03-06T21:59:59.886Z,97479.31
2023-03-06T22:02:27.159Z,97483.56
2023-03-06T22:04:54.181Z,97476.63
2023-03-06T22:07:21.669Z,97477.50
2023-03-06T22:09:48.645Z,97475.75
2023-03-06T22:12:15.871Z,97477.44
2023-03-06T22:14:43.949Z,97472.25
2023-03-06T22:17:11.154Z,97476.63
2023-03-06T22:19:37.986Z,97473.22
2023-03-06T22:22:05.430Z,97464.69
2023-03-06T22:24:32.321Z,97472.50
2023-03-06T22:26:59.568Z,97469.06
2023-03-06T22:29:26.571Z,97472.66
2023-03-06T22:31:53.818Z,97472.81
2023-03-06T22:34:20.724Z,97472.94
2023-03-06T22:36:48.350Z,97471.31
2023-03-06T22:39:15.511Z,97473.94
2023-03-06T22:41:42.859Z,97476.63
2023-03-06T22:44:16.069Z,97481.88
2023-03-06T22:46:43.658Z,97477.56
2023-03-06T22:49:12.455Z,97471.50
2023-03-06T22:51:40.755Z,97480.16
2023-03-06T22:54:08.933Z,97477.69
2023-03-06T22:56:36.570Z,97470.81
2023-03-06T22:59:04.411Z,97472.59
2023-03-06T23:01:34.075Z,97475.25
2023-03-06T23:04:08.509Z,97466.69
2023-03-06T23:06:39.736Z,97466.69
2023-03-06T23:09:14.583Z,97475.34
2023-03-06T23:11:42.316Z,97484.06
2023-03-06T23:14:12.239Z,97471.91
2023-03-06T23:16:40.020Z,97472.06
2023-03-06T23:19:07.570Z,97474.63
2023-03-06T23:21:34.811Z,97478.13
2023-03-06T23:24:02.436Z,97476.34
2023-03-06T23:26:31.464Z,97490.19
2023-03-06T23:28:58.541Z,97488.50
2023-03-06T23:31:28.950Z,97494.44
2023-03-06T23:34:01.343Z,97483.88
2023-03-06T23:36:29.480Z,97490.66
2023-03-06T23:38:56.803Z,97492.25
2023-03-06T23:41:24.260Z,97488.72
2023-03-06T23:43:52.944Z,97489.34
2023-03-06T23:46:21.984Z,97496.94
2023-03-06T23:48:48.960Z,97501.91
2023-03-06T23:51:21.999Z,97498.50
2023-03-06T23:53:54.927Z,97493.09
2023-03-06T23:56:23.424Z,97504.97
2023-03-06T23:58:50.453Z,97500.50
